sensor_id;sensor_type;location;lat;lon;timestamp;P1;durP1;ratioP1;P2;durP2;ratioP2
7807;SDS011;3949;49.254;8.894;2023-03-21T00:02:04;7.17;;;4.80;;
7807;SDS011;3949;49.254;8.894;2023-03-21T00:04:30;5.47;;;4.80;;
7807;SDS011;3949;49.254;8.894;2023-03-21T00:06:56;6.03;;;4.90;;
7807;SDS011;3949;49.254;8.894;2023-03-21T00:09:22;6.07;;;5.43;;
7807;SDS011;3949;49.254;8.894;2023-03-21T00:11:48;6.30;;;5.00;;
7807;SDS011;3949;49.254;8.894;2023-03-21T00:14:14;5.27;;;4.77;;
7807;SDS011;3949;49.254;8.894;2023-03-21T00:16:43;4.90;;;4.40;;
7807;SDS011;3949;49.254;8.894;2023-03-21T00:19:09;5.87;;;4.60;;
7807;SDS011;3949;49.254;8.894;2023-03-21T00:21:36;5.23;;;4.73;;
7807;SDS011;3949;49.254;8.894;2023-03-21T00:24:02;5.27;;;4.73;;
7807;SDS011;3949;49.254;8.894;2023-03-21T00:26:28;5.57;;;4.70;;
7807;SDS011;3949;49.254;8.894;2023-03-21T00:28:55;5.17;;;4.60;;
7807;SDS011;3949;49.254;8.894;2023-03-21T00:31:21;6.03;;;4.70;;
7807;SDS011;3949;49.254;8.894;2023-03-21T00:33:47;8.77;;;6.00;;
7807;SDS011;3949;49.254;8.894;2023-03-21T00:36:13;6.47;;;5.87;;
7807;SDS011;3949;49.254;8.894;2023-03-21T00:38:40;5.90;;;5.20;;
7807;SDS011;3949;49.254;8.894;2023-03-21T00:41:07;6.50;;;5.80;;
7807;SDS011;3949;49.254;8.894;2023-03-21T00:43:34;7.30;;;5.60;;
7807;SDS011;3949;49.254;8.894;2023-03-21T00:46:00;6.17;;;5.57;;
7807;SDS011;3949;49.254;8.894;2023-03-21T00:48:27;7.97;;;7.17;;
7807;SDS011;3949;49.254;8.894;2023-03-21T00:50:53;7.80;;;7.00;;
7807;SDS011;3949;49.254;8.894;2023-03-21T00:53:20;7.10;;;6.40;;
7807;SDS011;3949;49.254;8.894;2023-03-21T00:55:46;7.27;;;5.87;;
7807;SDS011;3949;49.254;8.894;2023-03-21T00:58:12;6.30;;;5.70;;
7807;SDS011;3949;49.254;8.894;2023-03-21T01:00:38;6.83;;;6.00;;
7807;SDS011;3949;49.254;8.894;2023-03-21T01:03:05;6.73;;;5.03;;
7807;SDS011;3949;49.254;8.894;2023-03-21T01:05:33;6.23;;;5.30;;
7807;SDS011;3949;49.254;8.894;2023-03-21T01:08:19;6.13;;;4.93;;
7807;SDS011;3949;49.254;8.894;2023-03-21T01:10:45;5.00;;;4.50;;
7807;SDS011;3949;49.254;8.894;2023-03-21T01:13:13;5.53;;;4.97;;
7807;SDS011;3949;49.254;8.894;2023-03-21T01:15:44;5.30;;;4.43;;
7807;SDS011;3949;49.254;8.894;2023-03-21T01:18:10;6.57;;;4.50;;
7807;SDS011;3949;49.254;8.894;2023-03-21T01:20:38;4.93;;;4.43;;
7807;SDS011;3949;49.254;8.894;2023-03-21T01:23:05;5.37;;;4.87;;
7807;SDS011;3949;49.254;8.894;2023-03-21T01:25:31;6.23;;;5.40;;
7807;SDS011;3949;49.254;8.894;2023-03-21T01:27:57;6.40;;;4.77;;
7807;SDS011;3949;49.254;8.894;2023-03-21T01:30:23;6.03;;;5.10;;
7807;SDS011;3949;49.254;8.894;2023-03-21T01:32:49;5.60;;;4.73;;
7807;SDS011;3949;49.254;8.894;2023-03-21T01:35:15;5.77;;;5.13;;
7807;SDS011;3949;49.254;8.894;2023-03-21T01:37:41;7.10;;;5.10;;
7807;SDS011;3949;49.254;8.894;2023-03-21T01:40:09;5.87;;;5.27;;
7807;SDS011;3949;49.254;8.894;2023-03-21T01:42:36;5.13;;;4.60;;
7807;SDS011;3949;49.254;8.894;2023-03-21T01:45:04;6.70;;;4.20;;
7807;SDS011;3949;49.254;8.894;2023-03-21T01:47:31;5.07;;;4.37;;
7807;SDS011;3949;49.254;8.894;2023-03-21T01:49:58;6.20;;;4.40;;
7807;SDS011;3949;49.254;8.894;2023-03-21T01:52:27;3.90;;;3.50;;
7807;SDS011;3949;49.254;8.894;2023-03-21T01:54:54;4.47;;;3.70;;
7807;SDS011;3949;49.254;8.894;2023-03-21T01:57:21;6.47;;;4.40;;
7807;SDS011;3949;49.254;8.894;2023-03-21T01:59:56;6.63;;;4.03;;
7807;SDS011;3949;49.254;8.894;2023-03-21T02:02:26;4.53;;;4.13;;
7807;SDS011;3949;49.254;8.894;2023-03-21T02:04:52;4.90;;;3.90;;
7807;SDS011;3949;49.254;8.894;2023-03-21T02:07:32;4.67;;;4.27;;
7807;SDS011;3949;49.254;8.894;2023-03-21T02:09:59;4.63;;;4.13;;
7807;SDS011;3949;49.254;8.894;2023-03-21T02:12:26;5.53;;;4.70;;
7807;SDS011;3949;49.254;8.894;2023-03-21T02:14:52;4.97;;;4.47;;
7807;SDS011;3949;49.254;8.894;2023-03-21T02:17:37;5.33;;;4.37;;
7807;SDS011;3949;49.254;8.894;2023-03-21T02:25:55;4.93;;;4.20;;
7807;SDS011;3949;49.254;8.894;2023-03-21T02:28:19;4.40;;;4.00;;
7807;SDS011;3949;49.254;8.894;2023-03-21T02:33:30;5.23;;;4.33;;
7807;SDS011;3949;49.254;8.894;2023-03-21T02:36:20;6.07;;;4.93;;
7807;SDS011;3949;49.254;8.894;2023-03-21T02:41:38;5.30;;;4.80;;
7807;SDS011;3949;49.254;8.894;2023-03-21T02:46:56;5.93;;;4.87;;
7807;SDS011;3949;49.254;8.894;2023-03-21T02:49:25;5.43;;;4.93;;
7807;SDS011;3949;49.254;8.894;2023-03-21T02:51:53;5.90;;;5.30;;
7807;SDS011;3949;49.254;8.894;2023-03-21T02:54:20;5.63;;;4.90;;
7807;SDS011;3949;49.254;8.894;2023-03-21T02:56:48;5.50;;;5.00;;
7807;SDS011;3949;49.254;8.894;2023-03-21T02:59:15;5.80;;;5.17;;
7807;SDS011;3949;49.254;8.894;2023-03-21T03:01:42;6.10;;;4.80;;
7807;SDS011;3949;49.254;8.894;2023-03-21T03:04:22;4.87;;;4.37;;
7807;SDS011;3949;49.254;8.894;2023-03-21T03:09:23;4.73;;;4.30;;
7807;SDS011;3949;49.254;8.894;2023-03-21T03:12:00;4.43;;;4.03;;
7807;SDS011;3949;49.254;8.894;2023-03-21T03:14:42;4.37;;;3.67;;
7807;SDS011;3949;49.254;8.894;2023-03-21T03:17:23;5.30;;;4.80;;
7807;SDS011;3949;49.254;8.894;2023-03-21T03:19:57;5.50;;;3.97;;
7807;SDS011;3949;49.254;8.894;2023-03-21T03:22:38;5.43;;;4.53;;
7807;SDS011;3949;49.254;8.894;2023-03-21T03:25:08;4.47;;;3.70;;
7807;SDS011;3949;49.254;8.894;2023-03-21T03:27:38;4.40;;;4.00;;
7807;SDS011;3949;49.254;8.894;2023-03-21T03:30:06;5.93;;;4.07;;
7807;SDS011;3949;49.254;8.894;2023-03-21T03:34:59;4.50;;;4.10;;
7807;SDS011;3949;49.254;8.894;2023-03-21T03:37:27;4.80;;;3.97;;
7807;SDS011;3949;49.254;8.894;2023-03-21T03:39:57;4.30;;;3.73;;
7807;SDS011;3949;49.254;8.894;2023-03-21T03:42:29;4.30;;;4.00;;
7807;SDS011;3949;49.254;8.894;2023-03-21T03:44:56;6.63;;;4.50;;
7807;SDS011;3949;49.254;8.894;2023-03-21T03:47:39;4.27;;;3.90;;
7807;SDS011;3949;49.254;8.894;2023-03-21T03:52:36;4.63;;;4.20;;
7807;SDS011;3949;49.254;8.894;2023-03-21T03:55:03;4.90;;;4.23;;
7807;SDS011;3949;49.254;8.894;2023-03-21T03:57:30;4.93;;;4.43;;
7807;SDS011;3949;49.254;8.894;2023-03-21T03:59:56;4.90;;;4.50;;
7807;SDS011;3949;49.254;8.894;2023-03-21T04:02:22;7.00;;;4.57;;
7807;SDS011;3949;49.254;8.894;2023-03-21T04:04:48;4.80;;;4.33;;
7807;SDS011;3949;49.254;8.894;2023-03-21T04:07:17;5.63;;;4.70;;
7807;SDS011;3949;49.254;8.894;2023-03-21T04:09:43;5.77;;;4.77;;
7807;SDS011;3949;49.254;8.894;2023-03-21T04:12:09;5.00;;;4.50;;
7807;SDS011;3949;49.254;8.894;2023-03-21T04:14:36;5.70;;;4.80;;
7807;SDS011;3949;49.254;8.894;2023-03-21T04:17:03;5.13;;;4.63;;
7807;SDS011;3949;49.254;8.894;2023-03-21T04:19:29;5.33;;;4.80;;
7807;SDS011;3949;49.254;8.894;2023-03-21T04:21:55;7.13;;;5.03;;
7807;SDS011;3949;49.254;8.894;2023-03-21T04:24:21;4.73;;;4.20;;
7807;SDS011;3949;49.254;8.894;2023-03-21T04:26:47;5.20;;;4.37;;
7807;SDS011;3949;49.254;8.894;2023-03-21T04:29:13;4.93;;;4.43;;
7807;SDS011;3949;49.254;8.894;2023-03-21T04:31:39;5.00;;;4.27;;
7807;SDS011;3949;49.254;8.894;2023-03-21T04:34:05;5.33;;;4.83;;
7807;SDS011;3949;49.254;8.894;2023-03-21T04:36:36;5.67;;;5.07;;
7807;SDS011;3949;49.254;8.894;2023-03-21T04:39:05;5.10;;;4.60;;
7807;SDS011;3949;49.254;8.894;2023-03-21T04:41:37;4.87;;;4.40;;
7807;SDS011;3949;49.254;8.894;2023-03-21T04:44:02;5.00;;;4.43;;
7807;SDS011;3949;49.254;8.894;2023-03-21T04:46:28;4.87;;;4.43;;
7807;SDS011;3949;49.254;8.894;2023-03-21T04:48:55;6.30;;;4.23;;
7807;SDS011;3949;49.254;8.894;2023-03-21T04:51:20;4.97;;;4.30;;
7807;SDS011;3949;49.254;8.894;2023-03-21T04:53:46;4.87;;;4.30;;
7807;SDS011;3949;49.254;8.894;2023-03-21T04:56:13;4.57;;;4.13;;
7807;SDS011;3949;49.254;8.894;2023-03-21T04:58:40;5.00;;;4.27;;
7807;SDS011;3949;49.254;8.894;2023-03-21T05:01:06;5.13;;;4.30;;
7807;SDS011;3949;49.254;8.894;2023-03-21T05:03:32;5.20;;;4.30;;
7807;SDS011;3949;49.254;8.894;2023-03-21T05:06:03;4.87;;;3.60;;
7807;SDS011;3949;49.254;8.894;2023-03-21T05:08:31;5.07;;;4.50;;
7807;SDS011;3949;49.254;8.894;2023-03-21T05:10:56;4.23;;;3.83;;
7807;SDS011;3949;49.254;8.894;2023-03-21T05:13:22;4.63;;;4.23;;
7807;SDS011;3949;49.254;8.894;2023-03-21T05:15:48;5.67;;;3.90;;
7807;SDS011;3949;49.254;8.894;2023-03-21T05:18:14;6.07;;;4.50;;
7807;SDS011;3949;49.254;8.894;2023-03-21T05:20:48;5.63;;;4.30;;
7807;SDS011;3949;49.254;8.894;2023-03-21T05:23:17;4.60;;;4.10;;
7807;SDS011;3949;49.254;8.894;2023-03-21T05:25:43;5.23;;;4.40;;
7807;SDS011;3949;49.254;8.894;2023-03-21T05:28:09;4.30;;;3.90;;
7807;SDS011;3949;49.254;8.894;2023-03-21T05:30:35;4.10;;;3.70;;
7807;SDS011;3949;49.254;8.894;2023-03-21T05:33:01;4.77;;;3.70;;
7807;SDS011;3949;49.254;8.894;2023-03-21T05:35:27;5.27;;;3.60;;
7807;SDS011;3949;49.254;8.894;2023-03-21T05:37:53;4.37;;;3.50;;
7807;SDS011;3949;49.254;8.894;2023-03-21T05:40:19;4.27;;;3.83;;
7807;SDS011;3949;49.254;8.894;2023-03-21T05:42:45;4.93;;;4.43;;
7807;SDS011;3949;49.254;8.894;2023-03-21T05:45:12;5.67;;;4.73;;
7807;SDS011;3949;49.254;8.894;2023-03-21T05:47:38;6.20;;;4.50;;
7807;SDS011;3949;49.254;8.894;2023-03-21T05:50:04;5.97;;;4.90;;
7807;SDS011;3949;49.254;8.894;2023-03-21T05:52:31;4.90;;;4.43;;
7807;SDS011;3949;49.254;8.894;2023-03-21T05:54:57;6.83;;;5.97;;
7807;SDS011;3949;49.254;8.894;2023-03-21T05:57:23;6.17;;;5.17;;
7807;SDS011;3949;49.254;8.894;2023-03-21T05:59:50;6.27;;;5.20;;
7807;SDS011;3949;49.254;8.894;2023-03-21T06:02:16;6.67;;;5.40;;
7807;SDS011;3949;49.254;8.894;2023-03-21T06:04:42;5.57;;;4.60;;
7807;SDS011;3949;49.254;8.894;2023-03-21T06:07:08;5.50;;;4.90;;
7807;SDS011;3949;49.254;8.894;2023-03-21T06:09:34;6.87;;;5.07;;
7807;SDS011;3949;49.254;8.894;2023-03-21T06:12:00;5.87;;;4.73;;
7807;SDS011;3949;49.254;8.894;2023-03-21T06:14:26;5.60;;;3.93;;
7807;SDS011;3949;49.254;8.894;2023-03-21T06:16:52;4.00;;;3.63;;
7807;SDS011;3949;49.254;8.894;2023-03-21T06:19:18;4.53;;;4.13;;
7807;SDS011;3949;49.254;8.894;2023-03-21T06:21:45;5.73;;;4.87;;
7807;SDS011;3949;49.254;8.894;2023-03-21T06:24:11;8.00;;;5.67;;
7807;SDS011;3949;49.254;8.894;2023-03-21T06:26:37;6.70;;;6.03;;
7807;SDS011;3949;49.254;8.894;2023-03-21T06:29:03;8.23;;;6.00;;
7807;SDS011;3949;49.254;8.894;2023-03-21T06:31:29;5.30;;;4.80;;
7807;SDS011;3949;49.254;8.894;2023-03-21T06:33:55;5.53;;;5.03;;
7807;SDS011;3949;49.254;8.894;2023-03-21T06:36:21;5.17;;;4.30;;
7807;SDS011;3949;49.254;8.894;2023-03-21T06:38:47;6.07;;;4.93;;
7807;SDS011;3949;49.254;8.894;2023-03-21T06:41:13;5.07;;;4.53;;
7807;SDS011;3949;49.254;8.894;2023-03-21T06:43:40;6.47;;;4.63;;
7807;SDS011;3949;49.254;8.894;2023-03-21T06:46:07;6.63;;;4.93;;
7807;SDS011;3949;49.254;8.894;2023-03-21T06:48:33;6.20;;;5.07;;
7807;SDS011;3949;49.254;8.894;2023-03-21T06:50:59;5.43;;;4.60;;
7807;SDS011;3949;49.254;8.894;2023-03-21T06:53:25;5.57;;;5.00;;
7807;SDS011;3949;49.254;8.894;2023-03-21T06:55:54;4.53;;;4.13;;
7807;SDS011;3949;49.254;8.894;2023-03-21T06:58:20;6.90;;;4.97;;
7807;SDS011;3949;49.254;8.894;2023-03-21T07:00:47;7.13;;;5.97;;
7807;SDS011;3949;49.254;8.894;2023-03-21T07:03:13;5.10;;;4.60;;
7807;SDS011;3949;49.254;8.894;2023-03-21T07:05:39;5.30;;;4.13;;
7807;SDS011;3949;49.254;8.894;2023-03-21T07:08:06;4.40;;;4.00;;
7807;SDS011;3949;49.254;8.894;2023-03-21T07:10:39;5.47;;;4.23;;
7807;SDS011;3949;49.254;8.894;2023-03-21T07:13:05;5.93;;;4.23;;
7807;SDS011;3949;49.254;8.894;2023-03-21T07:15:30;11.87;;;9.97;;
7807;SDS011;3949;49.254;8.894;2023-03-21T07:17:58;4.53;;;4.13;;
7807;SDS011;3949;49.254;8.894;2023-03-21T07:20:24;7.93;;;7.13;;
7807;SDS011;3949;49.254;8.894;2023-03-21T07:22:51;5.87;;;5.27;;
7807;SDS011;3949;49.254;8.894;2023-03-21T07:25:17;4.87;;;3.93;;
7807;SDS011;3949;49.254;8.894;2023-03-21T07:27:44;5.33;;;3.80;;
7807;SDS011;3949;49.254;8.894;2023-03-21T07:30:10;5.13;;;4.07;;
7807;SDS011;3949;49.254;8.894;2023-03-21T07:32:36;4.37;;;3.97;;
7807;SDS011;3949;49.254;8.894;2023-03-21T07:35:02;5.47;;;4.93;;
7807;SDS011;3949;49.254;8.894;2023-03-21T07:37:28;19.93;;;15.97;;
7807;SDS011;3949;49.254;8.894;2023-03-21T07:39:54;5.53;;;4.30;;
7807;SDS011;3949;49.254;8.894;2023-03-21T07:42:20;4.77;;;4.20;;
7807;SDS011;3949;49.254;8.894;2023-03-21T07:44:46;5.87;;;3.93;;
7807;SDS011;3949;49.254;8.894;2023-03-21T07:47:12;4.30;;;3.80;;
7807;SDS011;3949;49.254;8.894;2023-03-21T07:49:38;5.83;;;3.97;;
7807;SDS011;3949;49.254;8.894;2023-03-21T07:52:04;5.13;;;3.87;;
7807;SDS011;3949;49.254;8.894;2023-03-21T07:54:31;4.90;;;4.20;;
7807;SDS011;3949;49.254;8.894;2023-03-21T07:56:58;4.80;;;4.13;;
7807;SDS011;3949;49.254;8.894;2023-03-21T07:59:24;5.77;;;4.03;;
7807;SDS011;3949;49.254;8.894;2023-03-21T08:01:50;3.90;;;3.50;;
7807;SDS011;3949;49.254;8.894;2023-03-21T08:04:16;7.60;;;4.20;;
7807;SDS011;3949;49.254;8.894;2023-03-21T08:06:42;4.10;;;3.70;;
7807;SDS011;3949;49.254;8.894;2023-03-21T08:09:08;5.27;;;4.77;;
7807;SDS011;3949;49.254;8.894;2023-03-21T08:11:34;5.00;;;4.50;;
7807;SDS011;3949;49.254;8.894;2023-03-21T08:14:00;4.90;;;3.27;;
7807;SDS011;3949;49.254;8.894;2023-03-21T08:16:26;5.20;;;4.70;;
7807;SDS011;3949;49.254;8.894;2023-03-21T08:18:52;3.87;;;3.33;;
7807;SDS011;3949;49.254;8.894;2023-03-21T08:21:18;3.80;;;3.10;;
7807;SDS011;3949;49.254;8.894;2023-03-21T08:23:44;4.57;;;3.73;;
7807;SDS011;3949;49.254;8.894;2023-03-21T08:26:10;4.50;;;3.70;;
7807;SDS011;3949;49.254;8.894;2023-03-21T08:28:42;3.80;;;3.37;;
7807;SDS011;3949;49.254;8.894;2023-03-21T08:31:09;4.27;;;3.00;;
7807;SDS011;3949;49.254;8.894;2023-03-21T08:33:35;3.97;;;3.60;;
7807;SDS011;3949;49.254;8.894;2023-03-21T08:36:01;3.67;;;2.97;;
7807;SDS011;3949;49.254;8.894;2023-03-21T08:38:28;3.90;;;3.13;;
7807;SDS011;3949;49.254;8.894;2023-03-21T08:40:55;3.30;;;3.00;;
7807;SDS011;3949;49.254;8.894;2023-03-21T08:43:21;4.33;;;2.93;;
7807;SDS011;3949;49.254;8.894;2023-03-21T08:45:48;6.17;;;4.87;;
7807;SDS011;3949;49.254;8.894;2023-03-21T08:48:14;4.40;;;3.20;;
7807;SDS011;3949;49.254;8.894;2023-03-21T08:50:40;3.07;;;2.77;;
7807;SDS011;3949;49.254;8.894;2023-03-21T08:53:06;3.23;;;2.93;;
7807;SDS011;3949;49.254;8.894;2023-03-21T08:55:32;3.97;;;3.23;;
7807;SDS011;3949;49.254;8.894;2023-03-21T08:57:59;3.93;;;2.97;;
7807;SDS011;3949;49.254;8.894;2023-03-21T09:00:25;3.67;;;2.67;;
7807;SDS011;3949;49.254;8.894;2023-03-21T09:02:52;3.13;;;2.60;;
7807;SDS011;3949;49.254;8.894;2023-03-21T09:05:18;3.27;;;2.97;;
7807;SDS011;3949;49.254;8.894;2023-03-21T09:07:44;3.47;;;2.87;;
7807;SDS011;3949;49.254;8.894;2023-03-21T09:10:12;4.07;;;2.60;;
7807;SDS011;3949;49.254;8.894;2023-03-21T09:12:38;3.27;;;2.40;;
7807;SDS011;3949;49.254;8.894;2023-03-21T09:15:05;3.13;;;2.60;;
7807;SDS011;3949;49.254;8.894;2023-03-21T09:17:32;2.63;;;2.20;;
7807;SDS011;3949;49.254;8.894;2023-03-21T09:19:58;3.83;;;2.40;;
7807;SDS011;3949;49.254;8.894;2023-03-21T09:22:32;4.20;;;2.57;;
7807;SDS011;3949;49.254;8.894;2023-03-21T09:24:58;2.93;;;2.70;;
7807;SDS011;3949;49.254;8.894;2023-03-21T09:27:32;2.73;;;2.27;;
7807;SDS011;3949;49.254;8.894;2023-03-21T09:29:58;4.30;;;2.57;;
7807;SDS011;3949;49.254;8.894;2023-03-21T09:32:24;2.73;;;2.40;;
7807;SDS011;3949;49.254;8.894;2023-03-21T09:34:52;3.57;;;2.30;;
7807;SDS011;3949;49.254;8.894;2023-03-21T09:37:20;4.13;;;3.73;;
7807;SDS011;3949;49.254;8.894;2023-03-21T09:39:46;4.60;;;2.50;;
7807;SDS011;3949;49.254;8.894;2023-03-21T09:44:49;3.57;;;3.00;;
7807;SDS011;3949;49.254;8.894;2023-03-21T09:49:46;2.30;;;2.10;;
7807;SDS011;3949;49.254;8.894;2023-03-21T09:53:02;3.77;;;2.13;;
7807;SDS011;3949;49.254;8.894;2023-03-21T09:55:02;2.60;;;2.23;;
7807;SDS011;3949;49.254;8.894;2023-03-21T09:57:43;3.00;;;2.00;;
7807;SDS011;3949;49.254;8.894;2023-03-21T10:00:12;2.30;;;2.10;;
7807;SDS011;3949;49.254;8.894;2023-03-21T10:02:44;2.63;;;2.03;;
7807;SDS011;3949;49.254;8.894;2023-03-21T10:05:14;3.43;;;2.33;;
7807;SDS011;3949;49.254;8.894;2023-03-21T10:07:43;7.33;;;2.60;;
7807;SDS011;3949;49.254;8.894;2023-03-21T10:10:14;2.33;;;2.10;;
7807;SDS011;3949;49.254;8.894;2023-03-21T10:12:42;3.20;;;2.40;;
7807;SDS011;3949;49.254;8.894;2023-03-21T10:15:09;4.03;;;2.57;;
7807;SDS011;3949;49.254;8.894;2023-03-21T10:17:39;3.43;;;2.50;;
7807;SDS011;3949;49.254;8.894;2023-03-21T10:20:21;2.63;;;2.43;;
7807;SDS011;3949;49.254;8.894;2023-03-21T10:22:49;2.83;;;2.43;;
7807;SDS011;3949;49.254;8.894;2023-03-21T10:25:21;3.97;;;2.60;;
7807;SDS011;3949;49.254;8.894;2023-03-21T10:28:03;3.03;;;2.30;;
7807;SDS011;3949;49.254;8.894;2023-03-21T10:30:35;3.33;;;2.23;;
7807;SDS011;3949;49.254;8.894;2023-03-21T10:33:08;4.60;;;2.50;;
7807;SDS011;3949;49.254;8.894;2023-03-21T10:35:44;3.20;;;2.77;;
7807;SDS011;3949;49.254;8.894;2023-03-21T10:38:15;2.83;;;2.60;;
7807;SDS011;3949;49.254;8.894;2023-03-21T10:40:45;2.30;;;2.00;;
7807;SDS011;3949;49.254;8.894;2023-03-21T10:43:18;2.80;;;2.20;;
7807;SDS011;3949;49.254;8.894;2023-03-21T10:45:47;2.40;;;2.00;;
7807;SDS011;3949;49.254;8.894;2023-03-21T10:48:14;4.97;;;2.80;;
7807;SDS011;3949;49.254;8.894;2023-03-21T10:50:40;2.33;;;2.13;;
7807;SDS011;3949;49.254;8.894;2023-03-21T10:53:12;2.70;;;2.40;;
7807;SDS011;3949;49.254;8.894;2023-03-21T10:55:42;2.80;;;2.57;;
7807;SDS011;3949;49.254;8.894;2023-03-21T10:58:12;2.57;;;2.37;;
7807;SDS011;3949;49.254;8.894;2023-03-21T11:00:43;3.63;;;2.30;;
7807;SDS011;3949;49.254;8.894;2023-03-21T11:03:17;2.53;;;2.30;;
7807;SDS011;3949;49.254;8.894;2023-03-21T11:05:45;3.40;;;2.13;;
7807;SDS011;3949;49.254;8.894;2023-03-21T11:08:12;2.50;;;1.87;;
7807;SDS011;3949;49.254;8.894;2023-03-21T11:10:50;2.00;;;1.90;;
7807;SDS011;3949;49.254;8.894;2023-03-21T11:13:17;2.67;;;2.30;;
7807;SDS011;3949;49.254;8.894;2023-03-21T11:15:57;2.23;;;2.03;;
7807;SDS011;3949;49.254;8.894;2023-03-21T11:18:24;2.70;;;2.00;;
7807;SDS011;3949;49.254;8.894;2023-03-21T11:20:54;2.53;;;2.00;;
7807;SDS011;3949;49.254;8.894;2023-03-21T11:23:20;3.33;;;2.40;;
7807;SDS011;3949;49.254;8.894;2023-03-21T11:25:47;3.37;;;2.40;;
7807;SDS011;3949;49.254;8.894;2023-03-21T11:28:16;2.97;;;2.03;;
7807;SDS011;3949;49.254;8.894;2023-03-21T11:30:49;2.33;;;2.13;;
7807;SDS011;3949;49.254;8.894;2023-03-21T11:33:16;3.17;;;2.60;;
7807;SDS011;3949;49.254;8.894;2023-03-21T11:35:43;3.23;;;2.00;;
7807;SDS011;3949;49.254;8.894;2023-03-21T11:38:23;2.57;;;2.33;;
7807;SDS011;3949;49.254;8.894;2023-03-21T11:40:51;2.40;;;2.20;;
7807;SDS011;3949;49.254;8.894;2023-03-21T11:45:55;3.20;;;2.23;;
7807;SDS011;3949;49.254;8.894;2023-03-21T11:48:22;3.03;;;2.10;;
7807;SDS011;3949;49.254;8.894;2023-03-21T11:50:48;2.87;;;2.53;;
7807;SDS011;3949;49.254;8.894;2023-03-21T11:53:32;3.33;;;2.20;;
7807;SDS011;3949;49.254;8.894;2023-03-21T12:06:01;2.37;;;1.90;;
7807;SDS011;3949;49.254;8.894;2023-03-21T12:19:04;4.27;;;2.10;;
7807;SDS011;3949;49.254;8.894;2023-03-21T12:24:17;5.30;;;2.60;;
7807;SDS011;3949;49.254;8.894;2023-03-21T12:39:03;1.73;;;1.60;;
7807;SDS011;3949;49.254;8.894;2023-03-21T12:41:37;2.37;;;1.70;;
7807;SDS011;3949;49.254;8.894;2023-03-21T12:44:08;2.97;;;1.63;;
7807;SDS011;3949;49.254;8.894;2023-03-21T12:46:36;1.97;;;1.73;;
7807;SDS011;3949;49.254;8.894;2023-03-21T12:49:06;2.40;;;1.57;;
7807;SDS011;3949;49.254;8.894;2023-03-21T12:52:18;2.53;;;2.10;;
7807;SDS011;3949;49.254;8.894;2023-03-21T12:56:51;2.77;;;2.17;;
7807;SDS011;3949;49.254;8.894;2023-03-21T13:01:45;3.33;;;2.23;;
7807;SDS011;3949;49.254;8.894;2023-03-21T13:06:39;2.70;;;2.17;;
7807;SDS011;3949;49.254;8.894;2023-03-21T13:09:09;2.73;;;2.17;;
7807;SDS011;3949;49.254;8.894;2023-03-21T13:11:37;2.40;;;2.10;;
7807;SDS011;3949;49.254;8.894;2023-03-21T13:14:05;2.90;;;1.90;;
7807;SDS011;3949;49.254;8.894;2023-03-21T13:16:34;2.63;;;2.00;;
7807;SDS011;3949;49.254;8.894;2023-03-21T13:26:51;2.40;;;2.20;;
7807;SDS011;3949;49.254;8.894;2023-03-21T13:32:13;2.53;;;2.20;;
7807;SDS011;3949;49.254;8.894;2023-03-21T13:34:40;2.70;;;2.20;;
7807;SDS011;3949;49.254;8.894;2023-03-21T13:37:09;2.43;;;1.90;;
7807;SDS011;3949;49.254;8.894;2023-03-21T13:39:38;2.47;;;2.00;;
7807;SDS011;3949;49.254;8.894;2023-03-21T13:42:10;3.37;;;1.80;;
7807;SDS011;3949;49.254;8.894;2023-03-21T13:44:54;2.10;;;1.90;;
7807;SDS011;3949;49.254;8.894;2023-03-21T13:52:33;2.57;;;2.00;;
7807;SDS011;3949;49.254;8.894;2023-03-21T13:54:59;2.53;;;1.97;;
7807;SDS011;3949;49.254;8.894;2023-03-21T14:00:15;2.00;;;1.80;;
7807;SDS011;3949;49.254;8.894;2023-03-21T14:02:56;2.13;;;1.93;;
7807;SDS011;3949;49.254;8.894;2023-03-21T14:05:23;3.07;;;2.03;;
7807;SDS011;3949;49.254;8.894;2023-03-21T14:07:52;2.23;;;1.90;;
7807;SDS011;3949;49.254;8.894;2023-03-21T14:10:25;2.47;;;2.10;;
7807;SDS011;3949;49.254;8.894;2023-03-21T14:12:52;2.30;;;2.10;;
7807;SDS011;3949;49.254;8.894;2023-03-21T14:15:23;3.27;;;2.20;;
7807;SDS011;3949;49.254;8.894;2023-03-21T14:17:53;2.40;;;2.20;;
7807;SDS011;3949;49.254;8.894;2023-03-21T14:20:21;2.00;;;1.80;;
7807;SDS011;3949;49.254;8.894;2023-03-21T14:22:48;2.63;;;2.00;;
7807;SDS011;3949;49.254;8.894;2023-03-21T14:25:15;2.87;;;2.30;;
7807;SDS011;3949;49.254;8.894;2023-03-21T14:27:42;2.00;;;1.80;;
7807;SDS011;3949;49.254;8.894;2023-03-21T14:30:19;2.27;;;2.07;;
7807;SDS011;3949;49.254;8.894;2023-03-21T14:32:46;4.03;;;2.03;;
7807;SDS011;3949;49.254;8.894;2023-03-21T14:35:12;2.20;;;1.90;;
7807;SDS011;3949;49.254;8.894;2023-03-21T14:37:41;3.00;;;2.03;;
7807;SDS011;3949;49.254;8.894;2023-03-21T14:40:16;3.40;;;2.07;;
7807;SDS011;3949;49.254;8.894;2023-03-21T14:42:45;1.90;;;1.80;;
7807;SDS011;3949;49.254;8.894;2023-03-21T14:45:16;3.00;;;2.03;;
7807;SDS011;3949;49.254;8.894;2023-03-21T14:53:01;2.13;;;1.93;;
7807;SDS011;3949;49.254;8.894;2023-03-21T14:55:39;3.17;;;1.77;;
7807;SDS011;3949;49.254;8.894;2023-03-21T14:58:15;2.87;;;2.03;;
7807;SDS011;3949;49.254;8.894;2023-03-21T15:00:46;1.97;;;1.87;;
7807;SDS011;3949;49.254;8.894;2023-03-21T15:03:24;2.60;;;2.27;;
7807;SDS011;3949;49.254;8.894;2023-03-21T15:05:56;2.30;;;2.10;;
7807;SDS011;3949;49.254;8.894;2023-03-21T15:08:28;2.37;;;1.80;;
7807;SDS011;3949;49.254;8.894;2023-03-21T15:11:02;3.00;;;2.00;;
7807;SDS011;3949;49.254;8.894;2023-03-21T15:13:35;1.90;;;1.80;;
7807;SDS011;3949;49.254;8.894;2023-03-21T15:16:02;2.60;;;2.27;;
7807;SDS011;3949;49.254;8.894;2023-03-21T15:18:30;2.73;;;1.77;;
7807;SDS011;3949;49.254;8.894;2023-03-21T15:20:57;2.10;;;1.90;;
7807;SDS011;3949;49.254;8.894;2023-03-21T15:23:29;3.10;;;2.03;;
7807;SDS011;3949;49.254;8.894;2023-03-21T15:25:56;2.30;;;2.10;;
7807;SDS011;3949;49.254;8.894;2023-03-21T15:28:23;2.00;;;1.90;;
7807;SDS011;3949;49.254;8.894;2023-03-21T15:30:50;3.00;;;2.20;;
7807;SDS011;3949;49.254;8.894;2023-03-21T15:33:17;2.33;;;2.00;;
7807;SDS011;3949;49.254;8.894;2023-03-21T15:35:45;2.97;;;2.23;;
7807;SDS011;3949;49.254;8.894;2023-03-21T15:38:27;3.67;;;1.90;;
7807;SDS011;3949;49.254;8.894;2023-03-21T15:43:40;2.73;;;1.80;;
7807;SDS011;3949;49.254;8.894;2023-03-21T15:46:16;2.60;;;2.00;;
7807;SDS011;3949;49.254;8.894;2023-03-21T15:48:43;2.60;;;2.10;;
7807;SDS011;3949;49.254;8.894;2023-03-21T15:51:19;2.33;;;1.97;;
7807;SDS011;3949;49.254;8.894;2023-03-21T15:53:46;2.57;;;2.10;;
7807;SDS011;3949;49.254;8.894;2023-03-21T15:56:12;2.73;;;1.90;;
7807;SDS011;3949;49.254;8.894;2023-03-21T15:58:43;1.80;;;1.70;;
7807;SDS011;3949;49.254;8.894;2023-03-21T16:01:19;2.30;;;1.90;;
7807;SDS011;3949;49.254;8.894;2023-03-21T16:03:54;2.10;;;1.73;;
7807;SDS011;3949;49.254;8.894;2023-03-21T16:06:21;2.20;;;2.00;;
7807;SDS011;3949;49.254;8.894;2023-03-21T16:08:52;2.13;;;1.93;;
7807;SDS011;3949;49.254;8.894;2023-03-21T16:13:48;2.20;;;2.00;;
7807;SDS011;3949;49.254;8.894;2023-03-21T16:16:18;2.00;;;1.80;;
7807;SDS011;3949;49.254;8.894;2023-03-21T16:18:45;2.20;;;2.00;;
7807;SDS011;3949;49.254;8.894;2023-03-21T16:21:12;3.50;;;2.23;;
7807;SDS011;3949;49.254;8.894;2023-03-21T16:23:38;2.40;;;1.90;;
7807;SDS011;3949;49.254;8.894;2023-03-21T16:26:06;3.93;;;2.20;;
7807;SDS011;3949;49.254;8.894;2023-03-21T16:28:32;2.30;;;2.03;;
7807;SDS011;3949;49.254;8.894;2023-03-21T16:30:58;2.30;;;1.87;;
7807;SDS011;3949;49.254;8.894;2023-03-21T16:33:24;3.40;;;2.00;;
7807;SDS011;3949;49.254;8.894;2023-03-21T16:35:50;2.20;;;2.00;;
7807;SDS011;3949;49.254;8.894;2023-03-21T16:38:18;3.07;;;2.20;;
7807;SDS011;3949;49.254;8.894;2023-03-21T16:40:43;2.10;;;1.90;;
7807;SDS011;3949;49.254;8.894;2023-03-21T16:43:10;2.77;;;1.93;;
7807;SDS011;3949;49.254;8.894;2023-03-21T16:45:36;3.47;;;2.30;;
7807;SDS011;3949;49.254;8.894;2023-03-21T16:48:02;2.70;;;2.47;;
7807;SDS011;3949;49.254;8.894;2023-03-21T16:52:55;5.07;;;2.50;;
7807;SDS011;3949;49.254;8.894;2023-03-21T16:55:21;6.57;;;2.87;;
7807;SDS011;3949;49.254;8.894;2023-03-21T16:57:47;3.77;;;2.80;;
7807;SDS011;3949;49.254;8.894;2023-03-21T17:00:16;4.13;;;2.23;;
7807;SDS011;3949;49.254;8.894;2023-03-21T17:02:44;3.57;;;2.67;;
7807;SDS011;3949;49.254;8.894;2023-03-21T17:05:10;2.97;;;2.43;;
7807;SDS011;3949;49.254;8.894;2023-03-21T17:07:37;2.80;;;2.33;;